Time;durP1;ratioP1;P1;durP2;ratioP2;P2;SDS_P1;SDS_P2;PMS_P1;PMS_P2;Temp;Humidity;BMP_temperature;BMP_pressure;BME280_temperature;BME280_humidity;BME280_pressure;Samples;Min_cycle;Max_cycle;Signal;HPM_P1;HPM_P2
2023/10/26 00:00:49;;;;;;;19.13;15.60;;;;;;;9.60;100.00;98820.16;7397435;19;20359;-68
2023/10/26 00:03:20;;;;;;;19.60;15.82;;;;;;;9.59;100.00;98816.72;7396923;19;20014;-67
2023/10/26 00:05:50;;;;;;;19.13;15.70;;;;;;;9.61;100.00;98816.63;7396877;19;20552;-67
2023/10/26 00:08:18;;;;;;;17.98;15.43;;;;;;;9.60;100.00;98810.56;7394400;19;20038;-67
2023/10/26 00:10:46;;;;;;;18.83;16.50;;;;;;;9.59;100.00;98806.25;7396985;19;20011;-69
2023/10/26 00:13:15;;;;;;;17.08;15.10;;;;;;;9.60;100.00;98807.94;7394925;19;20081;-67
2023/10/26 00:15:43;;;;;;;19.30;15.65;;;;;;;9.60;100.00;98807.94;7395070;19;20011;-67
2023/10/26 00:18:13;;;;;;;18.02;15.52;;;;;;;9.62;100.00;98811.31;7394691;19;20082;-67
2023/10/26 00:20:45;;;;;;;18.98;15.57;;;;;;;9.62;100.00;98808.69;7396685;19;20022;-67
2023/10/26 00:23:13;;;;;;;18.02;16.02;;;;;;;9.63;100.00;98809.56;7395210;19;20031;-67
2023/10/26 00:25:42;;;;;;;19.52;15.95;;;;;;;9.64;100.00;98807.78;7396574;19;20015;-67
2023/10/26 00:28:10;;;;;;;17.17;14.57;;;;;;;9.65;100.00;98799.84;7394815;19;20011;-67
2023/10/26 00:30:39;;;;;;;18.10;15.25;;;;;;;9.65;100.00;98799.84;7396470;19;20082;-67
2023/10/26 00:33:07;;;;;;;16.42;14.68;;;;;;;9.66;100.00;98798.91;7396390;19;20019;-67
2023/10/26 00:35:45;;;;;;;15.85;13.93;;;;;;;9.66;100.00;98800.72;7396315;19;20027;-67
2023/10/26 00:38:14;;;;;;;15.57;13.90;;;;;;;9.65;100.00;98799.00;7394560;19;20023;-68
2023/10/26 00:40:42;;;;;;;17.90;15.73;;;;;;;9.64;100.00;98799.91;7396226;19;20010;-67
2023/10/26 00:43:21;;;;;;;18.08;14.20;;;;;;;9.64;100.00;98795.53;7396179;19;20019;-68
2023/10/26 00:45:52;;;;;;;16.33;12.93;;;;;;;9.64;100.00;98790.28;7395606;19;20507;-67
2023/10/26 00:48:21;;;;;;;17.70;13.80;;;;;;;9.64;100.00;98790.28;7393716;19;20011;-67
2023/10/26 00:50:52;;;;;;;15.98;13.65;;;;;;;9.65;100.00;98783.28;7395481;19;20481;-67
2023/10/26 00:53:22;;;;;;;16.17;13.30;;;;;;;9.65;100.00;98785.91;7396184;19;20023;-67
2023/10/26 00:55:53;;;;;;;16.98;13.05;;;;;;;9.66;100.00;98787.63;7395749;19;20017;-68
2023/10/26 00:58:25;;;;;;;15.10;13.50;;;;;;;9.65;100.00;98778.06;7394518;19;20091;-67
2023/10/26 01:00:54;;;;;;;15.50;13.60;;;;;;;9.65;100.00;98773.66;7395372;19;20503;-68
2023/10/26 01:03:24;;;;;;;16.10;14.40;;;;;;;9.68;100.00;98775.28;7395090;19;20481;-67
2023/10/26 01:05:55;;;;;;;15.30;13.73;;;;;;;9.69;100.00;98769.13;7395063;19;20007;-68
2023/10/26 01:08:23;;;;;;;16.33;14.30;;;;;;;9.70;100.00;98776.06;7393365;19;20014;-67
2023/10/26 01:10:52;;;;;;;17.20;14.55;;;;;;;9.70;100.00;98770.81;7395391;19;20435;-68
2023/10/26 01:13:21;;;;;;;16.50;14.30;;;;;;;9.71;100.00;98775.13;7395985;19;20011;-67
2023/10/26 01:15:49;;;;;;;16.65;13.90;;;;;;;9.71;100.00;98764.66;7395257;19;20015;-68
2023/10/26 01:18:18;;;;;;;15.55;13.90;;;;;;;9.72;100.00;98766.38;7393690;19;20032;-68
2023/10/26 01:20:46;;;;;;;16.92;14.77;;;;;;;9.73;100.00;98763.66;7394667;19;20023;-68
2023/10/26 01:23:18;;;;;;;17.63;14.40;;;;;;;9.72;100.00;98761.97;7395034;19;20014;-67
2023/10/26 01:25:52;;;;;;;14.57;13.07;;;;;;;9.72;100.00;98758.50;7395443;19;20074;-67
2023/10/26 01:28:21;;;;;;;15.60;13.80;;;;;;;9.72;100.00;98753.28;7397928;19;20086;-68
2023/10/26 01:30:50;;;;;;;15.50;13.82;;;;;;;9.72;100.00;98751.50;7402506;19;20006;-67
2023/10/26 01:33:18;;;;;;;15.10;13.27;;;;;;;9.72;100.00;98742.78;7399480;19;20024;-67
2023/10/26 01:35:47;;;;;;;16.55;14.25;;;;;;;9.72;100.00;98745.41;7402205;19;20031;-67
2023/10/26 01:38:18;;;;;;;15.93;13.95;;;;;;;9.72;100.00;98751.50;7400065;19;20014;-67
2023/10/26 01:40:46;;;;;;;15.70;14.10;;;;;;;9.72;100.00;98751.50;7401730;19;20023;-67
2023/10/26 01:43:15;;;;;;;17.52;15.57;;;;;;;9.72;100.00;98741.00;7399167;19;20019;-67
2023/10/26 01:45:43;;;;;;;16.60;13.98;;;;;;;9.72;100.00;98745.41;7401573;19;20347;-68
2023/10/26 01:48:12;;;;;;;20.00;15.05;;;;;;;9.72;100.00;98743.63;7399484;19;20031;-67
2023/10/26 01:50:40;;;;;;;18.50;14.98;;;;;;;9.72;100.00;98742.78;7401344;19;20011;-68
2023/10/26 01:53:09;;;;;;;17.67;15.38;;;;;;;9.71;100.00;98735.84;7401769;19;20027;-67
2023/10/26 01:55:40;;;;;;;16.38;14.45;;;;;;;9.71;100.00;98725.38;7401170;19;20493;-67
2023/10/26 01:58:08;;;;;;;17.25;15.10;;;;;;;9.71;100.00;98730.63;7399297;19;20502;-67
2023/10/26 02:00:37;;;;;;;19.40;15.50;;;;;;;9.71;100.00;98725.38;7401052;19;20024;-68
2023/10/26 02:03:05;;;;;;;18.67;16.10;;;;;;;9.72;100.00;98729.72;7401026;19;20367;-68
2023/10/26 02:05:35;;;;;;;19.17;16.52;;;;;;;9.71;100.00;98725.38;7400932;19;20007;-67
2023/10/26 02:08:03;;;;;;;20.00;16.75;;;;;;;9.70;100.00;98729.75;7397723;19;20018;-68
2023/10/26 02:10:32;;;;;;;18.88;16.10;;;;;;;9.70;100.00;98721.91;7401134;19;20018;-67
2023/10/26 02:13:03;;;;;;;20.90;17.27;;;;;;;9.69;100.00;98717.63;7400553;19;20023;-68
2023/10/26 02:15:31;;;;;;;20.92;17.50;;;;;;;9.70;100.00;98721.06;7401405;19;20023;-66
2023/10/26 02:18:00;;;;;;;19.13;16.80;;;;;;;9.68;100.00;98722.91;7399179;19;20014;-68
2023/10/26 02:20:28;;;;;;;21.77;18.23;;;;;;;9.68;100.00;98712.44;7401313;19;20378;-68
2023/10/26 02:22:57;;;;;;;23.15;19.45;;;;;;;9.67;100.00;98715.97;7401791;19;20010;-68
2023/10/26 02:25:26;;;;;;;22.33;18.55;;;;;;;9.66;100.00;98712.50;7401485;19;20014;-68
2023/10/26 02:27:54;;;;;;;21.10;18.35;;;;;;;9.65;100.00;98709.97;7398956;19;20006;-68
2023/10/26 02:30:25;;;;;;;23.55;18.65;;;;;;;9.65;100.00;98716.06;7400542;19;20035;-67
2023/10/26 02:32:54;;;;;;;22.45;18.38;;;;;;;9.66;100.00;98716.91;7400150;19;20347;-68
2023/10/26 02:35:23;;;;;;;22.75;19.38;;;;;;;9.66;100.00;98722.16;7399900;19;20007;-68
2023/10/26 02:37:51;;;;;;;23.27;18.55;;;;;;;9.64;100.00;98716.97;7397783;19;20025;-67
2023/10/26 02:40:26;;;;;;;25.08;19.65;;;;;;;9.66;100.00;98714.31;7397256;19;20014;-67
2023/10/26 02:42:54;;;;;;;24.95;19.92;;;;;;;9.65;100.00;98717.84;7400036;19;20024;-68
2023/10/26 02:45:26;;;;;;;22.10;18.35;;;;;;;9.65;100.00;98715.22;7399672;19;20545;-67
2023/10/26 02:47:54;;;;;;;25.17;20.23;;;;;;;9.65;100.00;98709.97;7398759;19;20019;-68
2023/10/26 02:50:22;;;;;;;26.50;21.27;;;;;;;9.66;100.00;98714.31;7396937;19;20015;-67
2023/10/26 02:52:51;;;;;;;26.40;21.60;;;;;;;9.67;100.00;98711.59;7399283;19;20545;-67
2023/10/26 02:55:19;;;;;;;27.52;21.08;;;;;;;9.68;100.00;98715.06;7399204;19;20070;-68
2023/10/26 02:57:48;;;;;;;25.10;21.98;;;;;;;9.68;100.00;98705.44;7398117;19;20010;-68
2023/10/26 03:00:17;;;;;;;24.73;20.17;;;;;;;9.69;100.00;98714.13;7399540;19;20082;-68
2023/10/26 03:02:48;;;;;;;24.40;20.20;;;;;;;9.67;100.00;98703.75;7399644;19;20011;-67
2023/10/26 03:05:17;;;;;;;24.58;20.23;;;;;;;9.68;100.00;98710.69;7399310;19;20396;-68
2023/10/26 03:07:48;;;;;;;25.02;20.40;;;;;;;9.69;100.00;98711.50;7396257;19;20086;-68
2023/10/26 03:10:16;;;;;;;25.90;21.42;;;;;;;9.68;100.00;98708.06;7397527;19;20009;-67
2023/10/26 03:12:46;;;;;;;25.48;21.35;;;;;;;9.70;100.00;98705.34;7396961;19;20028;-68
2023/10/26 03:15:15;;;;;;;25.88;21.58;;;;;;;9.70;100.00;98702.75;7399364;19;20060;-68
2023/10/26 03:17:47;;;;;;;24.08;19.45;;;;;;;9.70;100.00;98706.19;7397813;19;20384;-68
2023/10/26 03:20:16;;;;;;;25.55;20.52;;;;;;;9.70;100.00;98706.19;7396992;19;20019;-69
2023/10/26 03:22:44;;;;;;;25.10;19.88;;;;;;;9.72;100.00;98708.75;7396065;19;20010;-68
2023/10/26 03:25:13;;;;;;;24.85;20.52;;;;;;;9.72;100.00;98703.53;7398319;19;20509;-68
2023/10/26 03:27:42;;;;;;;25.08;19.98;;;;;;;9.72;100.00;98701.72;7397518;19;20014;-68
2023/10/26 03:30:11;;;;;;;25.02;20.65;;;;;;;9.73;100.00;98710.44;7396315;19;20481;-68
2023/10/26 03:32:40;;;;;;;25.77;20.20;;;;;;;9.73;100.00;98710.44;7398286;19;20010;-68
2023/10/26 03:35:11;;;;;;;26.42;20.35;;;;;;;9.72;100.00;98709.59;7397570;19;20477;-68
2023/10/26 03:37:40;;;;;;;25.85;20.30;;;;;;;9.72;100.00;98709.59;7396847;19;20014;-68
2023/10/26 03:40:16;;;;;;;24.48;19.48;;;;;;;9.73;100.00;98713.03;7398560;19;20338;-68
2023/10/26 03:42:45;;;;;;;22.80;19.67;;;;;;;9.74;100.00;98710.38;7396051;19;20019;-68
2023/10/26 03:45:14;;;;;;;22.83;19.70;;;;;;;9.76;100.00;98710.28;7397850;19;20027;-68
2023/10/26 03:47:43;;;;;;;26.35;20.02;;;;;;;9.77;100.00;98706.75;7396911;19;20040;-67
2023/10/26 03:50:14;;;;;;;22.48;18.80;;;;;;;9.77;100.00;98707.59;7393518;19;20015;-68
2023/10/26 03:52:42;;;;;;;24.88;20.05;;;;;;;9.80;100.00;98711.81;7397570;19;20031;-68
2023/10/26 03:55:11;;;;;;;24.27;20.08;;;;;;;9.80;100.00;98709.19;7398772;19;20014;-68
2023/10/26 03:57:39;;;;;;;22.90;19.13;;;;;;;9.81;100.00;98710.03;7396168;19;20031;-67
2023/10/26 04:00:10;;;;;;;23.83;19.98;;;;;;;9.81;100.00;98704.78;7397586;19;20244;-68
2023/10/26 04:02:38;;;;;;;22.58;18.48;;;;;;;9.81;100.00;98705.66;7397690;19;20006;-68
2023/10/26 04:05:07;;;;;;;23.77;20.15;;;;;;;9.80;100.00;98701.34;7395069;19;20453;-68
2023/10/26 04:07:52;;;;;;;25.58;19.83;;;;;;;9.80;100.00;98701.34;7394642;19;20014;-68
2023/10/26 04:10:21;;;;;;;23.27;19.52;;;;;;;9.80;100.00;98703.97;7395782;19;20070;-68
2023/10/26 04:12:49;;;;;;;27.75;22.05;;;;;;;9.80;100.00;98701.34;7396669;19;20082;-68
2023/10/26 04:15:18;;;;;;;24.33;20.70;;;;;;;9.81;100.00;98702.16;7396957;19;20413;-68
2023/10/26 04:17:46;;;;;;;22.45;18.60;;;;;;;9.81;100.00;98697.81;7396055;19;20055;-68
2023/10/26 04:20:15;;;;;;;22.33;18.50;;;;;;;9.81;100.00;98699.56;7394690;19;20018;-68
2023/10/26 04:22:46;;;;;;;21.17;17.25;;;;;;;9.80;100.00;98693.47;7396169;19;20498;-68
2023/10/26 04:25:15;;;;;;;20.13;17.17;;;;;;;9.79;100.00;98691.78;7396876;19;20014;-68
2023/10/26 04:27:44;;;;;;;20.33;17.50;;;;;;;9.80;100.00;98693.47;7394345;19;20419;-68
2023/10/26 04:30:14;;;;;;;20.73;17.25;;;;;;;9.80;100.00;98692.66;7395099;19;20078;-68
2023/10/26 04:32:42;;;;;;;24.38;17.40;;;;;;;9.81;100.00;98700.41;7396346;19;20018;-67
2023/10/26 04:35:11;;;;;;;18.45;15.95;;;;;;;9.78;100.00;98690.09;7395978;19;20021;-67
2023/10/26 04:37:39;;;;;;;21.15;16.63;;;;;;;9.81;100.00;98694.31;7394758;19;20414;-67
2023/10/26 04:40:11;;;;;;;18.67;16.15;;;;;;;9.81;100.00;98686.47;7395559;19;20011;-68
2023/10/26 04:42:40;;;;;;;18.48;16.15;;;;;;;9.82;100.00;98698.63;7395342;19;20398;-67
2023/10/26 04:45:09;;;;;;;20.67;17.17;;;;;;;9.81;100.00;98695.19;7395136;19;20049;-68
2023/10/26 04:47:38;;;;;;;19.88;17.13;;;;;;;9.81;100.00;98692.56;7394633;19;20022;-67
2023/10/26 04:50:07;;;;;;;20.73;17.30;;;;;;;9.82;100.00;98696.00;7394766;19;20018;-68
2023/10/26 04:52:36;;;;;;;17.10;15.05;;;;;;;9.81;100.00;98689.06;7395519;19;20032;-67
2023/10/26 04:55:05;;;;;;;16.52;14.27;;;;;;;9.81;100.00;98687.31;7395472;19;20038;-68
2023/10/26 04:57:37;;;;;;;17.92;15.18;;;;;;;9.80;100.00;98688.25;7394825;19;20025;-68
2023/10/26 05:00:09;;;;;;;17.50;14.75;;;;;;;9.77;100.00;98686.63;7395042;19;20481;-68
2023/10/26 05:02:37;;;;;;;17.10;14.18;;;;;;;9.77;100.00;98691.88;7394679;19;20017;-68
2023/10/26 05:05:07;;;;;;;15.80;13.60;;;;;;;9.76;100.00;98690.16;7394255;19;20011;-67
2023/10/26 05:07:36;;;;;;;15.55;13.50;;;;;;;9.76;100.00;98699.81;7393425;19;20021;-68
2023/10/26 05:10:05;;;;;;;17.02;13.63;;;;;;;9.74;100.00;98696.41;7393097;19;20074;-68
2023/10/26 05:12:36;;;;;;;15.30;13.55;;;;;;;9.73;100.00;98692.97;7394489;19;20036;-67
2023/10/26 05:15:05;;;;;;;14.32;12.82;;;;;;;9.73;100.00;98699.94;7393212;19;20015;-68
2023/10/26 05:17:35;;;;;;;13.98;12.48;;;;;;;9.72;100.00;98695.66;7393623;19;20469;-68
2023/10/26 05:20:04;;;;;;;13.85;12.27;;;;;;;9.69;100.00;98696.66;7394728;19;20010;-68
2023/10/26 05:22:32;;;;;;;17.17;13.55;;;;;;;9.70;100.00;98700.13;7394318;19;20487;-68
2023/10/26 05:25:04;;;;;;;13.50;11.90;;;;;;;9.68;100.00;98701.97;7394500;19;20031;-67
2023/10/26 05:27:32;;;;;;;13.57;11.93;;;;;;;9.67;100.00;98703.75;7392971;19;20017;-68
2023/10/26 05:30:03;;;;;;;13.50;11.90;;;;;;;9.66;100.00;98709.06;7393611;19;20400;-68
2023/10/26 05:32:32;;;;;;;15.80;12.45;;;;;;;9.65;100.00;98704.75;7392295;19;20502;-68
2023/10/26 05:35:01;;;;;;;15.55;11.30;;;;;;;9.64;100.00;98700.44;7394354;19;20018;-67
2023/10/26 05:37:29;;;;;;;13.18;11.77;;;;;;;9.62;100.00;98701.34;7393094;19;20021;-68
2023/10/26 05:39:58;;;;;;;12.98;11.15;;;;;;;9.62;100.00;98698.72;7393890;19;20018;-68
2023/10/26 05:42:26;;;;;;;14.90;11.85;;;;;;;9.61;100.00;98706.66;7393979;19;20031;-67
2023/10/26 05:44:56;;;;;;;13.05;11.57;;;;;;;9.60;100.00;98703.22;7393947;19;20018;-67
2023/10/26 05:47:27;;;;;;;13.32;11.70;;;;;;;9.60;100.00;98705.84;7393659;19;20014;-69
2023/10/26 05:49:57;;;;;;;15.35;12.43;;;;;;;9.61;100.00;98706.66;7393851;19;20082;-69
2023/10/26 05:52:25;;;;;;;14.30;12.18;;;;;;;9.62;100.00;98710.97;7393957;19;20029;-68
2023/10/26 05:54:54;;;;;;;15.85;12.95;;;;;;;9.61;100.00;98707.50;7393901;19;20028;-70
2023/10/26 05:57:23;;;;;;;19.10;13.05;;;;;;;9.62;100.00;98718.84;7391327;19;20037;-68
2023/10/26 05:59:51;;;;;;;15.65;12.70;;;;;;;9.59;100.00;98712.00;7393048;19;20037;-67
2023/10/26 06:02:20;;;;;;;15.60;12.90;;;;;;;9.58;100.00;98726.00;7393116;19;20539;-67
2023/10/26 06:04:51;;;;;;;14.98;12.90;;;;;;;9.57;100.00;98719.06;7393547;19;20027;-67
2023/10/26 06:07:19;;;;;;;16.13;13.73;;;;;;;9.56;100.00;98717.34;7391601;19;20088;-67
2023/10/26 06:09:49;;;;;;;15.60;12.52;;;;;;;9.55;100.00;98722.69;7393289;19;20015;-67
2023/10/26 06:12:18;;;;;;;16.02;12.57;;;;;;;9.52;100.00;98730.69;7393286;19;20014;-68
2023/10/26 06:14:46;;;;;;;15.68;12.98;;;;;;;9.48;100.00;98724.75;7398974;19;20375;-67
2023/10/26 06:17:15;;;;;;;17.23;13.77;;;;;;;9.47;100.00;98725.69;7399766;19;20014;-67
2023/10/26 06:19:44;;;;;;;16.58;13.23;;;;;;;9.48;100.00;98726.53;7397688;19;20036;-67
2023/10/26 06:22:22;;;;;;;17.92;13.82;;;;;;;9.48;100.00;98731.75;7399723;19;20388;-66
2023/10/26 06:24:50;;;;;;;17.80;13.75;;;;;;;9.49;100.00;98729.09;7399895;19;20534;-66
2023/10/26 06:27:19;;;;;;;16.90;12.77;;;;;;;9.50;100.00;98730.75;7399423;19;20413;-67
2023/10/26 06:29:48;;;;;;;17.85;13.55;;;;;;;9.50;100.00;98741.22;7399199;19;20007;-68
2023/10/26 06:32:16;;;;;;;27.83;18.08;;;;;;;9.51;100.00;98742.91;7400109;19;20010;-69
2023/10/26 06:34:45;;;;;;;21.45;15.98;;;;;;;9.51;100.00;98732.44;7399985;19;20015;-66
2023/10/26 06:37:14;;;;;;;17.67;14.40;;;;;;;9.50;100.00;98741.22;7398842;19;20018;-68
2023/10/26 06:39:45;;;;;;;22.15;16.02;;;;;;;9.47;100.00;98737.94;7399793;19;20036;-67
2023/10/26 06:42:13;;;;;;;21.75;16.35;;;;;;;9.52;100.00;98749.03;7400006;19;20035;-69
2023/10/26 06:44:41;;;;;;;20.25;15.02;;;;;;;9.50;100.00;98750.84;7400608;19;20018;-68
2023/10/26 06:47:10;;;;;;;22.67;15.60;;;;;;;9.50;100.00;98756.09;7398004;19;20023;-67
2023/10/26 06:49:41;;;;;;;22.15;15.63;;;;;;;9.49;100.00;98755.25;7398340;19;20039;-68
2023/10/26 06:52:09;;;;;;;21.40;15.57;;;;;;;9.51;100.00;98753.41;7396664;19;20018;-69
2023/10/26 06:54:38;;;;;;;22.25;15.73;;;;;;;9.51;100.00;98753.41;7398624;19;20019;-67
2023/10/26 06:57:09;;;;;;;23.38;15.77;;;;;;;9.53;100.00;98762.03;7396787;19;20014;-66
2023/10/26 06:59:37;;;;;;;26.55;16.60;;;;;;;9.57;100.00;98767.97;7399116;19;20036;-66
2023/10/26 07:02:06;;;;;;;24.48;17.30;;;;;;;9.57;100.00;98765.34;7399149;19;20015;-66
2023/10/26 07:04:35;;;;;;;22.95;16.63;;;;;;;9.55;100.00;98767.19;7399207;19;20397;-65
2023/10/26 07:07:03;;;;;;;25.60;17.52;;;;;;;9.52;100.00;98768.19;7398160;19;20477;-66
2023/10/26 07:09:32;;;;;;;27.60;17.55;;;;;;;9.51;100.00;98771.72;7397060;19;20572;-66
2023/10/26 07:12:00;;;;;;;26.33;15.40;;;;;;;9.51;100.00;98769.09;7399028;19;20031;-66
2023/10/26 07:14:32;;;;;;;23.48;15.45;;;;;;;9.51;100.00;98769.09;7396851;19;20014;-65
2023/10/26 07:17:00;;;;;;;25.30;16.38;;;;;;;9.52;100.00;98776.03;7397117;19;20011;-65
2023/10/26 07:19:28;;;;;;;22.40;14.52;;;;;;;9.51;100.00;98774.34;7397993;19;20358;-65
2023/10/26 07:21:57;;;;;;;22.58;15.68;;;;;;;9.51;100.00;98776.94;7398262;19;20018;-65
2023/10/26 07:24:25;;;;;;;29.67;16.45;;;;;;;9.52;100.00;98780.44;7397328;19;20052;-65
2023/10/26 07:26:54;;;;;;;23.08;14.90;;;;;;;9.55;100.00;98780.28;7397003;19;20490;-65
2023/10/26 07:29:22;;;;;;;21.23;14.88;;;;;;;9.55;100.00;98775.88;7398144;19;20015;-65
2023/10/26 07:31:54;;;;;;;24.30;15.50;;;;;;;9.54;100.00;98771.59;7395545;19;20429;-65
2023/10/26 07:34:22;;;;;;;23.65;15.63;;;;;;;9.58;100.00;98778.34;7398926;19;20014;-65
2023/10/26 07:36:50;;;;;;;22.05;14.25;;;;;;;9.61;100.00;98782.59;7395874;19;20015;-65
2023/10/26 07:39:19;;;;;;;24.70;14.57;;;;;;;9.64;100.00;98779.81;7398055;19;20473;-65
2023/10/26 07:41:47;;;;;;;24.23;14.35;;;;;;;9.66;100.00;98791.06;7395942;19;20015;-67
2023/10/26 07:44:16;;;;;;;20.80;13.63;;;;;;;9.66;100.00;98798.91;7397832;19;20017;-68
2023/10/26 07:46:44;;;;;;;23.15;13.50;;;;;;;9.66;100.00;98798.09;7397170;19;20392;-66
2023/10/26 07:49:15;;;;;;;24.23;14.45;;;;;;;9.66;100.00;98801.53;7397501;19;20025;-66
2023/10/26 07:51:44;;;;;;;19.23;12.98;;;;;;;9.67;100.00;98802.38;7394962;19;20505;-66
2023/10/26 07:54:12;;;;;;;20.75;12.52;;;;;;;9.66;100.00;98798.91;7397203;19;20014;-65
2023/10/26 07:56:41;;;;;;;25.48;14.20;;;;;;;9.67;100.00;98802.38;7397121;19;20034;-66
2023/10/26 07:59:09;;;;;;;22.27;12.98;;;;;;;9.68;100.00;98812.78;7397381;19;20028;-66
2023/10/26 08:01:39;;;;;;;21.85;12.50;;;;;;;9.69;100.00;98814.50;7396946;19;20010;-66
2023/10/26 08:04:08;;;;;;;18.63;13.02;;;;;;;9.69;100.00;98821.50;7396959;19;20014;-66
2023/10/26 08:06:39;;;;;;;22.60;13.68;;;;;;;9.72;100.00;98819.56;7396204;19;20037;-66
2023/10/26 08:09:08;;;;;;;23.92;14.35;;;;;;;9.74;100.00;98816.88;7395098;19;20036;-66
2023/10/26 08:11:36;;;;;;;24.08;14.90;;;;;;;9.76;100.00;98820.28;7394731;19;20028;-67
2023/10/26 08:14:05;;;;;;;22.40;13.20;;;;;;;9.78;100.00;98824.50;7394084;19;20011;-68
2023/10/26 08:16:33;;;;;;;19.80;12.10;;;;;;;9.80;100.00;98826.22;7396641;19;20027;-69
2023/10/26 08:19:02;;;;;;;23.00;12.82;;;;;;;9.79;100.00;98830.59;7394362;19;20069;-66
2023/10/26 08:21:30;;;;;;;19.42;12.63;;;;;;;9.76;100.00;98828.97;7396601;19;20006;-69
2023/10/26 08:24:01;;;;;;;25.58;15.48;;;;;;;9.70;100.00;98833.66;7396293;19;20470;-67
2023/10/26 08:26:30;;;;;;;19.08;13.40;;;;;;;9.68;100.00;98835.50;7394164;19;20078;-68
2023/10/26 08:28:58;;;;;;;17.70;12.05;;;;;;;9.67;100.00;98839.03;7396085;19;20060;-65
2023/10/26 08:31:27;;;;;;;17.65;12.25;;;;;;;9.66;100.00;98845.22;7394083;19;20484;-65
2023/10/26 08:33:55;;;;;;;17.38;11.63;;;;;;;9.66;100.00;98842.59;7395695;19;20031;-65
2023/10/26 08:36:26;;;;;;;17.30;12.43;;;;;;;9.67;100.00;98845.13;7392395;19;20020;-65
2023/10/26 08:38:54;;;;;;;17.40;12.48;;;;;;;9.68;100.00;98844.22;7393958;19;20019;-65
2023/10/26 08:41:26;;;;;;;16.52;12.32;;;;;;;9.69;100.00;98853.78;7394180;19;20035;-65
2023/10/26 08:43:54;;;;;;;19.10;12.73;;;;;;;9.71;100.00;98856.31;7394509;19;20022;-66
2023/10/26 08:46:23;;;;;;;21.00;13.20;;;;;;;9.71;100.00;98856.31;7395442;19;20367;-66
2023/10/26 08:48:56;;;;;;;18.92;13.88;;;;;;;9.71;100.00;98854.53;7393512;19;20040;-66
2023/10/26 08:51:30;;;;;;;18.50;12.82;;;;;;;9.72;100.00;98860.63;7394488;19;20015;-66
2023/10/26 08:54:00;;;;;;;18.08;12.85;;;;;;;9.71;100.00;98866.78;7395809;19;20081;-66
2023/10/26 08:56:31;;;;;;;17.70;12.93;;;;;;;9.71;100.00;98870.25;7395729;19;20035;-66
2023/10/26 08:59:02;;;;;;;19.83;14.35;;;;;;;9.73;100.00;98867.53;7395718;19;20031;-65
2023/10/26 09:01:31;;;;;;;20.05;13.65;;;;;;;9.74;100.00;98870.13;7395267;19;20026;-66
2023/10/26 09:03:59;;;;;;;23.73;14.35;;;;;;;9.75;100.00;98873.56;7394930;19;20019;-66
2023/10/26 09:06:44;;;;;;;18.10;12.50;;;;;;;9.76;100.00;98875.28;7394895;19;20015;-66
2023/10/26 09:09:13;;;;;;;17.90;13.70;;;;;;;9.78;100.00;98876.88;7393184;19;20015;-66
2023/10/26 09:11:46;;;;;;;16.08;12.05;;;;;;;9.80;100.00;98874.19;7393251;19;20509;-66
2023/10/26 09:14:16;;;;;;;13.48;11.23;;;;;;;9.80;100.00;98887.28;7394792;19;20015;-66
2023/10/26 09:16:46;;;;;;;14.85;11.63;;;;;;;9.82;100.00;98881.97;7393630;19;20481;-67
2023/10/26 09:19:15;;;;;;;17.55;13.18;;;;;;;9.84;100.00;98880.13;7394916;19;20021;-67
2023/10/26 09:21:51;;;;;;;14.95;11.73;;;;;;;9.85;100.00;98872.19;7394556;19;20035;-65
2023/10/26 09:24:21;;;;;;;13.18;10.52;;;;;;;9.89;100.00;98876.34;7392328;19;20363;-65
2023/10/26 09:26:52;;;;;;;14.05;10.30;;;;;;;9.89;100.00;98873.72;7393663;19;20078;-65
2023/10/26 09:29:21;;;;;;;13.35;10.38;;;;;;;9.94;100.00;98879.63;7394910;19;20426;-66
2023/10/26 09:32:00;;;;;;;13.95;10.95;;;;;;;9.92;100.00;98878.84;7391998;19;20015;-66
2023/10/26 09:34:29;;;;;;;15.07;10.02;;;;;;;9.97;100.00;98893.47;7392979;19;20022;-66
2023/10/26 09:37:05;;;;;;;12.70;9.45;;;;;;;9.95;100.00;98893.56;7393201;19;20431;-66
2023/10/26 09:39:35;;;;;;;13.57;10.75;;;;;;;9.95;100.00;98899.63;7394223;19;20021;-68
2023/10/26 09:42:09;;;;;;;15.27;11.77;;;;;;;9.99;100.00;98897.72;7392209;19;20074;-66
2023/10/26 09:44:38;;;;;;;19.90;13.98;;;;;;;10.02;100.00;98901.97;7394214;19;20018;-65
2023/10/26 09:47:07;;;;;;;17.08;11.98;;;;;;;10.05;100.00;98899.19;7391256;19;20387;-66
2023/10/26 09:49:36;;;;;;;24.23;14.45;;;;;;;10.08;100.00;98899.03;7399447;19;20361;-67
2023/10/26 09:52:05;;;;;;;23.30;14.55;;;;;;;10.11;100.00;98904.16;7399014;19;20476;-66
2023/10/26 09:54:36;;;;;;;25.25;14.45;;;;;;;10.15;100.00;98899.56;7401259;19;20016;-66
2023/10/26 09:57:16;;;;;;;20.77;14.75;;;;;;;10.20;100.00;98898.44;7400492;19;20506;-66
2023/10/26 09:59:45;;;;;;;17.42;12.40;;;;;;;10.24;100.00;98904.38;7398038;19;20544;-65
2023/10/26 10:02:17;;;;;;;10.60;8.60;;;;;;;10.24;100.00;98899.97;7400802;19;20018;-66
2023/10/26 10:04:46;;;;;;;12.18;9.43;;;;;;;10.22;100.00;98904.47;7397712;19;20014;-66
2023/10/26 10:07:18;;;;;;;15.57;11.05;;;;;;;10.18;100.00;98902.91;7398382;19;20074;-67
2023/10/26 10:10:06;;;;;;;14.65;11.88;;;;;;;10.23;100.00;98900.06;7397703;19;20014;-67
2023/10/26 10:12:38;;;;;;;24.73;11.85;;;;;;;10.24;100.00;98905.22;7398345;19;20019;-66
2023/10/26 10:15:09;;;;;;;27.60;11.35;;;;;;;10.21;100.00;98902.75;7400658;19;20036;-66
2023/10/26 10:18:14;;;;;;;31.15;11.05;;;;;;;10.17;100.00;98901.19;7398324;19;20036;-68
2023/10/26 10:20:44;;;;;;;14.15;10.63;;;;;;;10.15;100.00;98905.69;7401377;19;20070;-66
2023/10/26 10:23:32;;;;;;;13.65;11.38;;;;;;;10.14;100.00;98914.47;7399646;19;20074;-65
2023/10/26 10:26:00;;;;;;;13.30;10.23;;;;;;;10.14;100.00;98905.75;7400337;19;20015;-66
2023/10/26 10:28:53;;;;;;;13.25;9.90;;;;;;;10.14;100.00;98908.38;7398512;19;20011;-66
2023/10/26 10:31:26;;;;;;;14.23;9.63;;;;;;;10.12;100.00;98913.69;7398973;19;20021;-66
2023/10/26 10:34:05;;;;;;;15.98;11.65;;;;;;;10.12;100.00;98908.44;7399905;19;20022;-65
2023/10/26 10:37:04;;;;;;;18.42;13.95;;;;;;;10.11;100.00;98917.25;7399938;19;20023;-66
2023/10/26 10:39:32;;;;;;;16.27;13.20;;;;;;;10.10;100.00;98913.75;7397340;19;20027;-67
2023/10/26 10:42:01;;;;;;;14.85;12.10;;;;;;;10.10;100.00;98908.53;7399293;19;20477;-67
2023/10/26 10:44:37;;;;;;;14.57;10.88;;;;;;;10.10;100.00;98911.13;7399685;19;20035;-67
2023/10/26 10:47:05;;;;;;;15.85;12.13;;;;;;;10.11;100.00;98912.00;7399364;19;20496;-66
2023/10/26 10:49:34;;;;;;;17.00;12.00;;;;;;;10.09;100.00;98912.06;7399738;19;20475;-67
2023/10/26 10:52:15;;;;;;;17.50;11.50;;;;;;;10.06;100.00;98917.47;7397987;19;20024;-72
2023/10/26 10:54:50;;;;;;;18.83;12.60;;;;;;;10.08;100.00;98910.38;7399716;19;20070;-66
2023/10/26 10:57:19;;;;;;;16.90;12.07;;;;;;;10.10;100.00;98913.75;7396997;19;20021;-66
2023/10/26 10:59:54;;;;;;;16.08;12.57;;;;;;;10.06;100.00;98911.34;7398156;19;20082;-66
2023/10/26 11:02:23;;;;;;;14.40;11.45;;;;;;;10.04;100.00;98910.59;7399395;19;20033;-66
2023/10/26 11:04:55;;;;;;;14.40;11.50;;;;;;;10.01;100.00;98905.50;7399563;19;20014;-66
2023/10/26 11:07:28;;;;;;;22.08;13.07;;;;;;;10.03;100.00;98912.34;7396513;19;20027;-65
2023/10/26 11:10:00;;;;;;;19.50;13.32;;;;;;;10.02;100.00;98913.31;7396610;19;20374;-67
2023/10/26 11:12:29;;;;;;;14.07;11.82;;;;;;;9.99;100.00;98913.44;7396039;19;20518;-66
2023/10/26 11:15:00;;;;;;;17.13;11.85;;;;;;;9.97;100.00;98914.44;7398372;19;20026;-66
2023/10/26 11:17:31;;;;;;;19.65;11.38;;;;;;;9.95;100.00;98915.34;7397116;19;20010;-66
2023/10/26 11:20:00;;;;;;;15.23;11.38;;;;;;;9.96;100.00;98921.47;7395661;19;20070;-65
2023/10/26 11:22:28;;;;;;;13.55;10.63;;;;;;;9.99;100.00;98920.47;7397416;19;20502;-66
2023/10/26 11:24:57;;;;;;;16.83;11.63;;;;;;;10.00;100.00;98917.75;7398380;19;20010;-65
2023/10/26 11:27:25;;;;;;;16.85;11.90;;;;;;;10.01;100.00;98923.84;7398010;19;20015;-67
2023/10/26 11:30:08;;;;;;;14.98;11.25;;;;;;;10.00;100.00;98928.22;7395354;19;20448;-68